createdAt,value
2023-10-23T00:00:14.622Z,12.52
2023-10-23T00:03:22.927Z,12.47
2023-10-23T00:05:56.416Z,12.49
2023-10-23T00:08:28.844Z,12.53
2023-10-23T00:11:01.459Z,12.54
2023-10-23T00:13:36.151Z,12.48
2023-10-23T00:16:12.553Z,12.43
2023-10-23T00:18:45.711Z,12.33
2023-10-23T00:21:20.581Z,12.33
2023-10-23T00:23:52.934Z,12.37
2023-10-23T00:26:26.314Z,12.33
2023-10-23T00:28:58.715Z,12.26
2023-10-23T00:31:35.297Z,12.29
2023-10-23T00:34:07.661Z,12.18
2023-10-23T00:36:40.859Z,12.15
2023-10-23T00:39:12.783Z,11.99
2023-10-23T00:41:46.030Z,11.97
2023-10-23T00:44:20.694Z,11.91
2023-10-23T00:47:01.158Z,11.93
2023-10-23T00:50:10.536Z,11.88
2023-10-23T00:52:49.350Z,11.87
2023-10-23T00:55:25.910Z,11.79
2023-10-23T00:58:16.288Z,11.79
2023-10-23T01:00:52.466Z,11.79
2023-10-23T01:03:33.377Z,11.78
2023-10-23T01:06:14.880Z,11.70
2023-10-23T01:08:50.500Z,11.66
2023-10-23T01:11:22.870Z,11.63
2023-10-23T01:13:55.156Z,11.56
2023-10-23T01:16:28.168Z,11.55
2023-10-23T01:19:03.474Z,11.55
2023-10-23T01:21:35.544Z,11.53
2023-10-23T01:24:12.210Z,11.49
2023-10-23T01:26:52.614Z,11.39
2023-10-23T01:29:24.750Z,11.31
2023-10-23T01:31:56.933Z,11.25
2023-10-23T01:34:29.244Z,11.24
2023-10-23T01:37:01.827Z,11.26
2023-10-23T01:39:34.153Z,11.23
2023-10-23T01:42:09.852Z,11.26
2023-10-23T01:44:42.537Z,11.20
2023-10-23T01:47:16.085Z,11.18
2023-10-23T01:49:49.262Z,11.10
2023-10-23T01:52:21.884Z,11.11
2023-10-23T01:54:55.537Z,11.10
2023-10-23T01:57:31.436Z,11.12
2023-10-23T02:00:07.400Z,11.09
2023-10-23T02:02:39.667Z,11.04
2023-10-23T02:05:12.901Z,11.06
2023-10-23T02:07:44.762Z,11.05
2023-10-23T02:10:17.044Z,10.96
2023-10-23T02:12:52.881Z,10.96
2023-10-23T02:15:25.245Z,11.05
2023-10-23T02:17:57.543Z,11.06
2023-10-23T02:20:30.914Z,11.09
2023-10-23T02:23:03.368Z,11.14
2023-10-23T02:25:35.763Z,11.14
2023-10-23T02:28:10.506Z,11.15
2023-10-23T02:30:43.423Z,11.13
2023-10-23T02:33:15.786Z,11.18
2023-10-23T02:35:48.319Z,11.17
2023-10-23T02:38:20.661Z,11.21
2023-10-23T02:40:56.168Z,11.22
2023-10-23T02:43:31.527Z,11.23
2023-10-23T02:46:06.119Z,11.22
2023-10-23T02:48:38.462Z,11.23
2023-10-23T02:51:11.011Z,11.16
2023-10-23T02:53:43.336Z,11.18
2023-10-23T02:56:16.950Z,11.17
2023-10-23T02:58:52.217Z,11.14
2023-10-23T03:01:26.932Z,11.03
2023-10-23T03:03:59.494Z,10.99
2023-10-23T03:06:32.361Z,10.95
2023-10-23T03:09:06.810Z,10.90
2023-10-23T03:11:40.947Z,10.98
2023-10-23T03:14:15.885Z,11.01
2023-10-23T03:16:48.815Z,10.98
2023-10-23T03:19:23.992Z,10.94
2023-10-23T03:21:57.924Z,10.91
2023-10-23T03:24:30.109Z,10.87
2023-10-23T03:27:02.282Z,10.82
2023-10-23T03:29:37.008Z,10.81
2023-10-23T03:32:10.668Z,10.83
2023-10-23T03:34:42.567Z,10.78
2023-10-23T03:37:16.343Z,10.81
2023-10-23T03:39:48.790Z,10.76
2023-10-23T03:42:22.242Z,10.76
2023-10-23T03:45:04.005Z,10.75
2023-10-23T03:47:41.732Z,10.67
2023-10-23T03:50:14.289Z,10.64
2023-10-23T03:52:46.598Z,10.67
2023-10-23T03:55:20.681Z,10.58
2023-10-23T03:57:54.051Z,10.58
2023-10-23T04:00:29.064Z,10.52
2023-10-23T04:03:01.561Z,10.56
2023-10-23T04:05:35.516Z,10.51
2023-10-23T04:08:08.116Z,10.54
2023-10-23T04:10:40.119Z,10.57
2023-10-23T04:13:12.296Z,10.62
2023-10-23T04:15:56.894Z,10.53
2023-10-23T04:18:29.223Z,10.59
2023-10-23T04:21:08.846Z,10.60
2023-10-23T04:23:42.655Z,10.57
2023-10-23T04:26:15.246Z,10.61
2023-10-23T04:28:47.671Z,10.64
2023-10-23T04:31:22.380Z,10.56
2023-10-23T04:33:54.739Z,10.50
2023-10-23T04:36:31.107Z,10.54
2023-10-23T04:39:04.173Z,10.55
2023-10-23T04:41:37.480Z,10.40
2023-10-23T04:44:14.323Z,10.38
2023-10-23T04:46:56.063Z,10.39
2023-10-23T04:49:28.557Z,10.43
2023-10-23T04:52:04.347Z,10.41
2023-10-23T04:54:41.492Z,10.41
2023-10-23T04:57:18.057Z,10.46
2023-10-23T04:59:50.359Z,10.48
2023-10-23T05:02:25.418Z,10.44
2023-10-23T05:04:57.684Z,10.44
2023-10-23T05:07:33.160Z,10.46
2023-10-23T05:10:07.113Z,10.45
2023-10-23T05:12:40.428Z,10.44
2023-10-23T05:15:26.379Z,10.33
2023-10-23T05:18:03.531Z,10.35
2023-10-23T05:20:45.146Z,10.34
2023-10-23T05:23:26.747Z,10.25
2023-10-23T05:26:03.082Z,10.21
2023-10-23T05:28:38.447Z,10.24
2023-10-23T05:31:12.327Z,10.23
2023-10-23T05:33:53.472Z,10.21
2023-10-23T05:36:27.885Z,10.18
2023-10-23T05:39:08.714Z,10.19
2023-10-23T05:41:41.712Z,10.20
2023-10-23T05:44:13.999Z,10.17
2023-10-23T05:46:47.399Z,10.13
2023-10-23T05:49:21.912Z,10.11
2023-10-23T05:51:54.074Z,10.11
2023-10-23T05:54:32.338Z,10.09
2023-10-23T05:57:05.232Z,10.11
2023-10-23T05:59:41.360Z,10.14
2023-10-23T06:02:15.676Z,10.13
2023-10-23T06:04:51.787Z,10.11
2023-10-23T06:07:23.951Z,10.13
2023-10-23T06:09:58.010Z,10.22
2023-10-23T06:12:33.107Z,10.28
2023-10-23T06:15:06.326Z,10.34
2023-10-23T06:17:46.057Z,10.31
2023-10-23T06:20:20.735Z,10.43
2023-10-23T06:23:10.294Z,10.45
2023-10-23T06:25:42.425Z,10.46
2023-10-23T06:28:14.682Z,10.49
2023-10-23T06:30:48.826Z,10.56
2023-10-23T06:33:22.326Z,10.54
2023-10-23T06:36:05.138Z,10.62
2023-10-23T06:38:37.976Z,10.68
2023-10-23T06:41:10.753Z,10.60
2023-10-23T06:43:43.249Z,10.72
2023-10-23T06:46:15.577Z,10.87
2023-10-23T06:48:48.748Z,10.91
2023-10-23T06:51:23.345Z,10.94
2023-10-23T06:53:56.146Z,11.05
2023-10-23T06:56:35.120Z,11.05
2023-10-23T06:59:07.451Z,11.19
2023-10-23T07:01:46.201Z,11.14
2023-10-23T07:04:25.569Z,11.13
2023-10-23T07:07:10.907Z,11.30
2023-10-23T07:09:54.900Z,11.26
2023-10-23T07:12:26.932Z,11.47
2023-10-23T07:15:00.190Z,11.66
2023-10-23T07:17:33.588Z,11.85
2023-10-23T07:20:08.602Z,11.74
2023-10-23T07:22:43.163Z,11.56
2023-10-23T07:25:21.005Z,11.71
2023-10-23T07:28:02.690Z,11.82
2023-10-23T07:30:34.918Z,12.04
2023-10-23T07:33:07.238Z,11.93
2023-10-23T07:35:52.632Z,11.98
2023-10-23T07:38:29.299Z,11.79
2023-10-23T07:41:02.622Z,11.57
2023-10-23T07:43:50.857Z,11.63
2023-10-23T07:47:09.867Z,11.77
2023-10-23T07:49:56.493Z,11.85
2023-10-23T07:52:42.015Z,12.09
2023-10-23T07:55:17.554Z,12.00
2023-10-23T07:57:55.493Z,12.18
2023-10-23T08:00:30.335Z,12.33
2023-10-23T08:03:07.323Z,12.32
2023-10-23T08:06:00.881Z,12.23
2023-10-23T08:08:45.806Z,12.18
2023-10-23T08:11:22.767Z,12.28
2023-10-23T08:13:55.764Z,12.12
2023-10-23T08:16:41.134Z,12.33
2023-10-23T08:19:14.540Z,12.58
2023-10-23T08:21:58.861Z,12.65
2023-10-23T08:24:50.080Z,12.59
2023-10-23T08:27:39.801Z,12.66
2023-10-23T08:30:17.204Z,12.73
2023-10-23T08:32:53.215Z,12.51
2023-10-23T08:35:33.887Z,12.67
2023-10-23T08:38:09.326Z,12.32
2023-10-23T08:40:47.323Z,12.43
2023-10-23T08:43:23.841Z,12.67
2023-10-23T08:45:58.745Z,12.85
2023-10-23T08:48:33.642Z,12.94
2023-10-23T08:51:08.661Z,13.18
2023-10-23T08:57:18.644Z,13.21
2023-10-23T08:59:58.963Z,13.28
2023-10-23T09:02:52.060Z,13.08
2023-10-23T09:05:45.841Z,13.05
2023-10-23T09:08:29.047Z,13.33
2023-10-23T09:11:06.323Z,13.26
2023-10-23T09:13:40.325Z,13.34
2023-10-23T09:16:18.178Z,13.46
2023-10-23T09:19:07.308Z,13.77
2023-10-23T09:21:39.567Z,13.69
2023-10-23T09:24:15.493Z,13.47
2023-10-23T09:26:54.162Z,13.82
2023-10-23T09:29:27.765Z,13.76
2023-10-23T09:32:04.883Z,13.83
2023-10-23T09:34:38.244Z,13.85
2023-10-23T09:37:11.269Z,13.82
2023-10-23T09:39:49.403Z,14.06
2023-10-23T09:42:42.243Z,14.07
2023-10-23T09:45:17.962Z,14.50
2023-10-23T09:48:02.780Z,14.29
2023-10-23T09:51:07.404Z,14.48
2023-10-23T09:54:32.085Z,14.43
2023-10-23T09:57:35.804Z,14.49
2023-10-23T10:00:20.963Z,14.21
2023-10-23T10:03:21.539Z,15.23
2023-10-23T10:07:00.850Z,15.39
2023-10-23T10:10:03.229Z,15.45
2023-10-23T10:13:15.092Z,15.18
2023-10-23T10:16:09.939Z,15.45
2023-10-23T10:20:37.967Z,15.39
2023-10-23T10:23:14.612Z,15.18
2023-10-23T10:27:02.242Z,15.53
2023-10-23T10:29:46.524Z,15.68
2023-10-23T10:32:31.239Z,15.64
2023-10-23T10:35:45.158Z,15.70
2023-10-23T10:38:36.647Z,15.69
2023-10-23T10:41:40.802Z,15.62
2023-10-23T10:44:24.446Z,15.66
2023-10-23T10:47:03.263Z,15.31
2023-10-23T10:49:36.171Z,15.54
2023-10-23T10:52:59.169Z,15.46
2023-10-23T10:56:27.689Z,15.07
2023-10-23T10:59:46.217Z,15.50
2023-10-23T11:02:36.609Z,15.88
2023-10-23T11:05:40.257Z,16.03
2023-10-23T11:08:35.731Z,16.00
2023-10-23T11:11:14.690Z,16.03
2023-10-23T11:13:48.448Z,16.21
2023-10-23T11:16:31.820Z,15.97
2023-10-23T11:19:09.810Z,15.82
2023-10-23T11:22:12.479Z,15.91
2023-10-23T11:24:47.992Z,16.06
2023-10-23T11:27:25.207Z,16.23
2023-10-23T11:30:05.252Z,16.23
2023-10-23T11:32:38.749Z,15.49
2023-10-23T11:35:13.061Z,15.79
2023-10-23T11:37:49.489Z,16.04
2023-10-23T11:40:28.417Z,15.75
2023-10-23T11:43:17.507Z,15.74
2023-10-23T11:45:57.516Z,15.56
2023-10-23T11:48:41.008Z,15.88
2023-10-23T11:51:45.844Z,16.21
2023-10-23T11:54:36.411Z,15.94
2023-10-23T11:57:11.052Z,15.59
2023-10-23T11:59:54.749Z,15.68
2023-10-23T12:02:30.726Z,15.83
2023-10-23T12:05:08.824Z,16.15
2023-10-23T12:07:47.057Z,15.85
2023-10-23T12:10:43.069Z,15.58
2023-10-23T12:13:15.705Z,15.39
2023-10-23T12:15:58.432Z,16.03
2023-10-23T12:18:31.687Z,15.91
2023-10-23T12:21:06.690Z,15.59
2023-10-23T12:23:40.573Z,15.15
2023-10-23T12:26:13.528Z,15.55
2023-10-23T12:28:46.689Z,15.64
2023-10-23T12:32:01.588Z,15.40
2023-10-23T12:34:46.414Z,15.63
2023-10-23T12:37:43.449Z,15.55
2023-10-23T12:40:50.543Z,15.07
2023-10-23T12:43:34.092Z,14.73
2023-10-23T12:46:22.040Z,14.96
2023-10-23T12:49:50.372Z,15.27
2023-10-23T12:52:40.717Z,15.11
2023-10-23T12:55:23.041Z,15.47
2023-10-23T12:58:09.125Z,15.41
2023-10-23T13:01:03.923Z,15.63
2023-10-23T13:03:48.321Z,15.88
2023-10-23T13:06:46.139Z,15.66
2023-10-23T13:09:20.781Z,15.60
2023-10-23T13:12:41.213Z,15.69
2023-10-23T13:15:22.302Z,15.89
2023-10-23T13:17:57.797Z,16.05
2023-10-23T13:21:27.307Z,16.12
2023-10-23T13:23:25.060Z,16.14
2023-10-23T13:26:10.123Z,15.95
2023-10-23T13:28:49.435Z,15.74
2023-10-23T13:31:23.608Z,15.87
2023-10-23T13:33:56.680Z,15.89
2023-10-23T13:36:28.768Z,15.94
2023-10-23T13:39:07.674Z,15.93
2023-10-23T13:41:39.894Z,15.97
2023-10-23T13:44:12.659Z,15.98
2023-10-23T13:46:45.406Z,16.07
2023-10-23T13:49:39.643Z,16.18
2023-10-23T13:52:27.533Z,16.33
2023-10-23T13:55:17.071Z,16.42
2023-10-23T13:57:49.656Z,16.11
2023-10-23T14:00:23.550Z,16.32
2023-10-23T14:03:05.784Z,16.47
2023-10-23T14:05:52.649Z,16.42
2023-10-23T14:08:31.976Z,16.38
2023-10-23T14:11:59.525Z,16.28
2023-10-23T14:14:25.052Z,16.19
2023-10-23T14:16:58.507Z,16.01
2023-10-23T14:19:45.546Z,16.10
2023-10-23T14:22:32.688Z,16.21
2023-10-23T14:25:11.381Z,16.09
2023-10-23T14:27:46.936Z,16.09
2023-10-23T14:30:21.820Z,16.05
2023-10-23T14:32:55.651Z,16.03
2023-10-23T14:35:48.056Z,16.01
2023-10-23T14:38:25.115Z,16.05
2023-10-23T14:41:21.905Z,15.97
2023-10-23T14:43:57.335Z,15.97
2023-10-23T14:46:29.931Z,15.87
2023-10-23T14:49:04.828Z,15.93
2023-10-23T14:51:43.443Z,15.99
2023-10-23T14:54:22.529Z,15.97
2023-10-23T14:57:04.401Z,15.95
2023-10-23T22:07:51.809Z,11.85
2023-10-23T22:10:29.021Z,11.79
2023-10-23T22:13:02.834Z,11.85
2023-10-23T22:15:36.126Z,11.83
2023-10-23T22:18:10.763Z,11.87
2023-10-23T22:20:43.667Z,11.89
2023-10-23T22:23:19.732Z,11.78
2023-10-23T22:25:57.052Z,11.78
2023-10-23T22:28:32.145Z,11.91
2023-10-23T22:31:06.321Z,11.89
2023-10-23T22:33:40.138Z,11.80
2023-10-23T22:36:13.751Z,11.85
2023-10-23T22:38:50.260Z,11.85
2023-10-23T22:41:24.040Z,11.85
2023-10-23T22:43:56.297Z,11.87
2023-10-23T22:46:29.188Z,11.85
2023-10-23T22:49:01.683Z,11.83
2023-10-23T22:51:36.979Z,11.85
2023-10-23T22:54:13.035Z,11.82
2023-10-23T22:56:46.557Z,11.77
2023-10-23T22:59:19.578Z,11.92
2023-10-23T23:01:53.082Z,11.92
2023-10-23T23:04:26.807Z,11.88
2023-10-23T23:07:04.441Z,11.89
2023-10-23T23:09:41.932Z,11.88
2023-10-23T23:12:16.541Z,11.92
2023-10-23T23:14:51.521Z,11.97
2023-10-23T23:20:29.549Z,11.95
2023-10-23T23:23:04.096Z,11.99
2023-10-23T23:25:39.419Z,11.99
2023-10-23T23:28:12.622Z,11.93
2023-10-23T23:30:46.006Z,11.97
2023-10-23T23:33:19.457Z,11.95
2023-10-23T23:35:54.501Z,11.95
2023-10-23T23:38:27.974Z,11.96
2023-10-23T23:41:02.553Z,11.94
2023-10-23T23:43:37.074Z,11.91
2023-10-23T23:46:09.597Z,11.88
2023-10-23T23:48:41.808Z,11.85
2023-10-23T23:51:15.868Z,11.84
2023-10-23T23:53:48.246Z,11.85
2023-10-23T23:56:22.746Z,11.80
2023-10-23T23:58:54.823Z,11.82
